Time;durP1;ratioP1;P1;durP2;ratioP2;P2;SDS_P1;SDS_P2;PMS_P1;PMS_P2;Temp;Humidity;BMP_temperature;BMP_pressure;BME280_temperature;BME280_humidity;BME280_pressure;Samples;Min_cycle;Max_cycle;Signal;HPM_P1;HPM_P2
2021/07/19 00:00:11;;;;;;;16.73;8.43;;;;;;;;;;5035358;28;20048;-64
2021/07/19 00:02:38;;;;;;;17.02;8.80;;;;;;;;;;5040831;28;20129;-64
2021/07/19 00:05:04;;;;;;;20.48;9.45;;;;;;;;;;5043336;28;20500;-64
2021/07/19 00:07:30;;;;;;;15.43;9.40;;;;;;;;;;5041129;28;20140;-64
2021/07/19 00:09:58;;;;;;;21.45;9.95;;;;;;;;;;5034528;28;20120;-64
2021/07/19 00:12:25;;;;;;;16.10;9.60;;;;;;;;;;5043606;28;20057;-64
2021/07/19 00:14:51;;;;;;;17.00;9.18;;;;;;;;;;5037896;28;20135;-64
2021/07/19 00:17:18;;;;;;;19.50;9.55;;;;;;;;;;5046881;28;20069;-64
2021/07/19 00:19:46;;;;;;;18.08;9.68;;;;;;;;;;5042712;28;20088;-64
2021/07/19 00:22:12;;;;;;;17.45;9.32;;;;;;;;;;5043630;28;20041;-64
2021/07/19 00:24:38;;;;;;;20.98;9.43;;;;;;;;;;5042430;28;20055;-64
2021/07/19 00:27:05;;;;;;;17.55;8.98;;;;;;;;;;5041378;28;20046;-64
2021/07/19 00:29:31;;;;;;;17.70;9.35;;;;;;;;;;5045643;28;20041;-64
2021/07/19 00:31:57;;;;;;;15.98;8.75;;;;;;;;;;5045812;28;20393;-64
2021/07/19 00:34:23;;;;;;;15.88;8.95;;;;;;;;;;5046366;28;20072;-64
2021/07/19 00:36:54;;;;;;;18.67;10.38;;;;;;;;;;5043155;28;20515;-64
2021/07/19 00:39:20;;;;;;;18.95;9.15;;;;;;;;;;5043147;28;20081;-64
2021/07/19 00:41:47;;;;;;;20.45;9.38;;;;;;;;;;5042196;28;20041;-64
2021/07/19 00:44:17;;;;;;;14.75;9.35;;;;;;;;;;5044610;28;20117;-64
2021/07/19 00:46:43;;;;;;;20.02;9.60;;;;;;;;;;5038960;28;20073;-64
2021/07/19 00:49:11;;;;;;;16.55;8.45;;;;;;;;;;5045604;28;20132;-64
2021/07/19 00:51:38;;;;;;;15.30;9.43;;;;;;;;;;5038752;28;20044;-64
2021/07/19 00:54:04;;;;;;;16.10;9.48;;;;;;;;;;5043161;28;20049;-64
2021/07/19 00:56:31;;;;;;;21.17;9.10;;;;;;;;;;5045515;28;20480;-64
2021/07/19 00:58:58;;;;;;;18.58;9.38;;;;;;;;;;5037298;28;20052;-64
2021/07/19 01:01:26;;;;;;;19.10;9.57;;;;;;;;;;5039144;28;20095;-64
2021/07/19 01:03:53;;;;;;;19.27;9.52;;;;;;;;;;5044551;28;20381;-64
2021/07/19 01:06:19;;;;;;;17.67;9.73;;;;;;;;;;5046534;28;20504;-64
2021/07/19 01:08:46;;;;;;;20.17;9.80;;;;;;;;;;5041904;28;20067;-64
2021/07/19 01:11:14;;;;;;;17.67;9.40;;;;;;;;;;5043862;28;20070;-64
2021/07/19 01:13:40;;;;;;;19.52;8.63;;;;;;;;;;5039500;28;20041;-64
2021/07/19 01:16:06;;;;;;;17.48;9.07;;;;;;;;;;5037742;28;20504;-64
2021/07/19 01:18:33;;;;;;;21.65;9.02;;;;;;;;;;5044848;28;20123;-64
2021/07/19 01:21:00;;;;;;;16.95;7.95;;;;;;;;;;5043577;28;20473;-64
2021/07/19 01:23:36;;;;;;;16.58;9.70;;;;;;;;;;5042820;28;20064;-64
2021/07/19 01:26:07;;;;;;;20.73;10.05;;;;;;;;;;5044247;28;20048;-64
2021/07/19 01:28:42;;;;;;;16.52;8.63;;;;;;;;;;5043725;28;20049;-64
2021/07/19 01:31:19;;;;;;;22.63;10.00;;;;;;;;;;5043930;28;20147;-64
2021/07/19 01:33:47;;;;;;;17.10;9.82;;;;;;;;;;5041434;28;20049;-64
2021/07/19 01:36:14;;;;;;;17.42;8.85;;;;;;;;;;5044254;28;20384;-64
2021/07/19 01:38:41;;;;;;;17.70;9.35;;;;;;;;;;5045304;28;20105;-64
2021/07/19 01:41:07;;;;;;;16.80;9.18;;;;;;;;;;5043352;28;20053;-64
2021/07/19 01:43:34;;;;;;;15.82;8.63;;;;;;;;;;5046275;28;20139;-64
2021/07/19 01:46:01;;;;;;;13.95;8.68;;;;;;;;;;5047038;28;20170;-64
2021/07/19 01:48:30;;;;;;;21.65;9.52;;;;;;;;;;5044702;28;20045;-64
2021/07/19 01:50:58;;;;;;;16.17;7.72;;;;;;;;;;5047514;28;20501;-64
2021/07/19 01:53:25;;;;;;;21.60;9.38;;;;;;;;;;5044188;28;20051;-64
2021/07/19 01:55:51;;;;;;;16.17;8.73;;;;;;;;;;5041059;28;20046;-64
2021/07/19 01:58:17;;;;;;;17.73;9.10;;;;;;;;;;5040775;28;20072;-64
2021/07/19 02:00:44;;;;;;;15.93;9.02;;;;;;;;;;5046315;28;20050;-64
2021/07/19 02:03:10;;;;;;;17.75;9.30;;;;;;;;;;5047944;28;20127;-64
2021/07/19 02:05:36;;;;;;;17.00;10.63;;;;;;;;;;5039725;28;20408;-64
2021/07/19 02:08:03;;;;;;;15.70;8.57;;;;;;;;;;5039237;28;20209;-64
2021/07/19 02:10:30;;;;;;;14.90;8.13;;;;;;;;;;5045396;28;20091;-64
2021/07/19 02:12:57;;;;;;;16.33;8.38;;;;;;;;;;5043224;28;20041;-64
2021/07/19 02:15:24;;;;;;;15.93;8.07;;;;;;;;;;5043386;28;20502;-64
2021/07/19 02:17:54;;;;;;;16.75;9.20;;;;;;;;;;5042669;28;20064;-64
2021/07/19 02:20:21;;;;;;;17.27;9.55;;;;;;;;;;5041553;28;20515;-64
2021/07/19 02:22:47;;;;;;;16.48;8.18;;;;;;;;;;5042888;28;20045;-64
2021/07/19 02:25:15;;;;;;;18.60;8.98;;;;;;;;;;5042688;28;20045;-64
2021/07/19 02:27:43;;;;;;;14.88;8.98;;;;;;;;;;5045202;28;20086;-64
2021/07/19 02:30:10;;;;;;;20.00;8.60;;;;;;;;;;5046249;28;20484;-64
2021/07/19 02:32:38;;;;;;;17.15;9.27;;;;;;;;;;5040600;28;20049;-64
2021/07/19 02:35:05;;;;;;;17.33;9.93;;;;;;;;;;5043587;28;20515;-64
2021/07/19 02:37:32;;;;;;;13.05;8.32;;;;;;;;;;5047129;28;20083;-64
2021/07/19 02:39:58;;;;;;;15.02;8.57;;;;;;;;;;5041599;28;20453;-64
2021/07/19 02:42:25;;;;;;;16.73;8.63;;;;;;;;;;5045505;28;20390;-64
2021/07/19 02:44:51;;;;;;;12.75;7.97;;;;;;;;;;5035823;28;20056;-64
2021/07/19 02:47:18;;;;;;;12.80;8.07;;;;;;;;;;5037455;28;20040;-64
2021/07/19 02:49:44;;;;;;;14.93;8.52;;;;;;;;;;5042026;28;20046;-64
2021/07/19 02:52:12;;;;;;;18.75;9.30;;;;;;;;;;5048014;28;20069;-64
2021/07/19 02:54:39;;;;;;;16.95;9.57;;;;;;;;;;5037765;28;20480;-64
2021/07/19 02:57:06;;;;;;;14.02;8.13;;;;;;;;;;5042924;28;20063;-64
2021/07/19 02:59:32;;;;;;;16.20;8.70;;;;;;;;;;5038302;28;20173;-64
2021/07/19 03:01:58;;;;;;;13.98;8.73;;;;;;;;;;5038238;28;20042;-64
2021/07/19 03:04:27;;;;;;;17.27;9.13;;;;;;;;;;5038020;28;20111;-64
2021/07/19 03:06:53;;;;;;;14.00;8.70;;;;;;;;;;5039727;28;20095;-64
2021/07/19 03:09:20;;;;;;;17.55;9.18;;;;;;;;;;5042945;28;20459;-64
2021/07/19 03:11:48;;;;;;;15.00;9.38;;;;;;;;;;5041250;28;20037;-64
2021/07/19 03:14:16;;;;;;;16.83;9.00;;;;;;;;;;5045789;28;20075;-64
2021/07/19 03:16:43;;;;;;;15.98;8.35;;;;;;;;;;5034205;28;20133;-64
2021/07/19 03:19:13;;;;;;;17.38;9.20;;;;;;;;;;5041691;28;20105;-64
2021/07/19 03:21:40;;;;;;;15.80;8.85;;;;;;;;;;5043390;28;20048;-64
2021/07/19 03:24:08;;;;;;;13.90;8.45;;;;;;;;;;5041824;28;20109;-64
2021/07/19 03:26:35;;;;;;;17.20;8.63;;;;;;;;;;5039794;28;20051;-64
2021/07/19 03:29:01;;;;;;;16.25;9.65;;;;;;;;;;5043922;28;20144;-64
2021/07/19 03:31:29;;;;;;;13.90;9.05;;;;;;;;;;5045173;28;20114;-64
2021/07/19 03:33:56;;;;;;;15.05;9.57;;;;;;;;;;5046145;28;20075;-64
2021/07/19 03:36:23;;;;;;;19.25;9.90;;;;;;;;;;5043211;28;20499;-64
2021/07/19 03:38:50;;;;;;;14.07;8.88;;;;;;;;;;5038663;28;20052;-64
2021/07/19 03:41:16;;;;;;;19.45;11.00;;;;;;;;;;5038640;28;20488;-64
2021/07/19 03:43:44;;;;;;;16.83;9.73;;;;;;;;;;5041931;28;20041;-64
2021/07/19 03:46:11;;;;;;;16.75;10.23;;;;;;;;;;5040510;28;20045;-64
2021/07/19 03:48:38;;;;;;;22.25;10.77;;;;;;;;;;5040357;28;20037;-64
2021/07/19 03:51:04;;;;;;;18.27;10.07;;;;;;;;;;5043576;28;20239;-64
2021/07/19 03:53:31;;;;;;;19.02;11.05;;;;;;;;;;5040284;28;20048;-64
2021/07/19 03:55:58;;;;;;;17.67;10.50;;;;;;;;;;5040966;28;20080;-64
2021/07/19 03:58:25;;;;;;;13.60;9.35;;;;;;;;;;5040863;28;20101;-64
2021/07/19 04:00:51;;;;;;;14.60;9.55;;;;;;;;;;5042392;28;20099;-64
2021/07/19 04:03:24;;;;;;;17.90;9.55;;;;;;;;;;5041747;28;20045;-64
2021/07/19 04:05:57;;;;;;;14.10;8.60;;;;;;;;;;5040098;28;20091;-64
2021/07/19 04:08:24;;;;;;;;;;;;;;;;;;5040947;28;20429;-64
2021/07/19 04:10:50;;;;;;;18.95;8.68;;;;;;;;;;5043519;28;19928;-64
2021/07/19 04:13:18;;;;;;;15.85;9.55;;;;;;;;;;5037247;28;20171;-64
2021/07/19 04:15:48;;;;;;;19.77;9.07;;;;;;;;;;5038884;28;20043;-64
2021/07/19 04:18:14;;;;;;;16.50;7.70;;;;;;;;;;5042394;28;20482;-64
2021/07/19 04:20:41;;;;;;;19.92;7.85;;;;;;;;;;5044320;28;20042;-64
2021/07/19 04:23:09;;;;;;;15.32;7.15;;;;;;;;;;5037677;28;20033;-64
2021/07/19 04:25:36;;;;;;;17.35;7.35;;;;;;;;;;5043510;28;20053;-64
2021/07/19 04:28:04;;;;;;;15.82;5.95;;;;;;;;;;5038881;28;20065;-64
2021/07/19 04:30:37;;;;;;;15.52;5.72;;;;;;;;;;5041209;28;20037;-64
2021/07/19 04:33:04;;;;;;;17.50;6.07;;;;;;;;;;5038757;28;20486;-64
2021/07/19 04:35:30;;;;;;;13.80;5.80;;;;;;;;;;5043274;28;20040;-64
2021/07/19 04:37:57;;;;;;;17.80;5.55;;;;;;;;;;5031725;28;20057;-64
2021/07/19 04:40:25;;;;;;;17.25;5.38;;;;;;;;;;5041776;28;20200;-64
2021/07/19 04:42:51;;;;;;;17.42;5.88;;;;;;;;;;5040022;28;20069;-64
2021/07/19 04:45:19;;;;;;;14.73;5.10;;;;;;;;;;5038293;28;20048;-64
2021/07/19 04:47:46;;;;;;;13.98;5.38;;;;;;;;;;5036470;28;20345;-64
2021/07/19 04:50:14;;;;;;;21.02;5.95;;;;;;;;;;5038871;28;20053;-64
2021/07/19 04:52:40;;;;;;;13.23;5.28;;;;;;;;;;5039914;28;20077;-64
2021/07/19 04:55:10;;;;;;;14.00;5.32;;;;;;;;;;5042694;28;20183;-64
2021/07/19 04:57:37;;;;;;;12.57;4.80;;;;;;;;;;5039063;28;20109;-64
2021/07/19 05:00:04;;;;;;;14.20;4.90;;;;;;;;;;5036817;28;20124;-64
2021/07/19 05:02:32;;;;;;;14.82;4.93;;;;;;;;;;5038300;28;20072;-64
2021/07/19 05:05:01;;;;;;;18.27;4.85;;;;;;;;;;5044071;28;20048;-64
2021/07/19 05:07:32;;;;;;;12.20;4.35;;;;;;;;;;5043531;28;20048;-64
2021/07/19 05:10:00;;;;;;;13.25;4.07;;;;;;;;;;5041007;28;20052;-64
2021/07/19 05:12:31;;;;;;;13.60;5.30;;;;;;;;;;5042899;28;20055;-64
2021/07/19 05:14:58;;;;;;;12.93;5.60;;;;;;;;;;5041330;28;20051;-64
2021/07/19 05:17:27;;;;;;;8.88;4.20;;;;;;;;;;5036672;28;20052;-64
2021/07/19 05:19:53;;;;;;;17.88;5.57;;;;;;;;;;5038487;28;20052;-64
2021/07/19 05:22:19;;;;;;;16.15;5.03;;;;;;;;;;5038207;28;20106;-63
2021/07/19 05:24:46;;;;;;;9.98;4.38;;;;;;;;;;5039747;28;20120;-64
2021/07/19 05:27:13;;;;;;;10.55;4.30;;;;;;;;;;5047622;28;20040;-64
2021/07/19 05:29:39;;;;;;;14.95;4.90;;;;;;;;;;5039481;28;20118;-64
2021/07/19 05:32:07;;;;;;;15.10;4.22;;;;;;;;;;5040505;28;20045;-64
2021/07/19 05:34:33;;;;;;;14.43;5.05;;;;;;;;;;5042589;28;20056;-64
2021/07/19 05:37:01;;;;;;;17.10;4.38;;;;;;;;;;5035727;28;20041;-64
2021/07/19 05:39:28;;;;;;;13.95;4.75;;;;;;;;;;5039807;28;20053;-64
2021/07/19 05:41:54;;;;;;;15.20;4.90;;;;;;;;;;5034335;28;20122;-64
2021/07/19 05:44:21;;;;;;;14.70;4.75;;;;;;;;;;5035818;28;20048;-64
2021/07/19 05:46:47;;;;;;;14.40;4.38;;;;;;;;;;5044977;28;20048;-64
2021/07/19 05:49:13;;;;;;;16.00;4.25;;;;;;;;;;5041557;28;20049;-64
2021/07/19 05:51:40;;;;;;;12.15;4.53;;;;;;;;;;5041538;28;20140;-64
2021/07/19 05:54:06;;;;;;;12.13;4.10;;;;;;;;;;5042492;28;20040;-64
2021/07/19 05:56:33;;;;;;;13.02;4.38;;;;;;;;;;5043191;28;20037;-64
2021/07/19 05:59:14;;;;;;;14.35;3.88;;;;;;;;;;5046487;28;20073;-64
2021/07/19 06:01:40;;;;;;;12.18;4.80;;;;;;;;;;5043495;28;20107;-64
2021/07/19 06:04:07;;;;;;;13.40;4.50;;;;;;;;;;5043815;28;20041;-64
2021/07/19 06:06:33;;;;;;;14.35;4.72;;;;;;;;;;5045427;28;20080;-64
2021/07/19 06:08:59;;;;;;;13.88;4.63;;;;;;;;;;5042888;28;20449;-64
2021/07/19 06:11:25;;;;;;;20.98;4.80;;;;;;;;;;5042140;28;20153;-64
2021/07/19 06:13:51;;;;;;;13.57;4.75;;;;;;;;;;5042468;28;20049;-65
2021/07/19 06:16:18;;;;;;;13.68;4.32;;;;;;;;;;5046525;28;20049;-64
2021/07/19 06:18:44;;;;;;;13.10;4.20;;;;;;;;;;5040459;28;20049;-65
2021/07/19 06:21:19;;;;;;;14.20;5.10;;;;;;;;;;5044468;28;20048;-64
2021/07/19 06:23:45;;;;;;;15.23;4.57;;;;;;;;;;5045592;28;20096;-65
2021/07/19 06:26:11;;;;;;;11.55;4.35;;;;;;;;;;5044308;28;20064;-65
2021/07/19 06:28:38;;;;;;;9.77;4.60;;;;;;;;;;5044930;28;20081;-65
2021/07/19 06:31:04;;;;;;;16.00;5.28;;;;;;;;;;5046113;28;20571;-65
2021/07/19 06:33:30;;;;;;;10.23;4.80;;;;;;;;;;5038220;28;20048;-65
2021/07/19 06:35:57;;;;;;;10.02;4.40;;;;;;;;;;5045341;28;20041;-65
2021/07/19 06:38:23;;;;;;;14.27;5.03;;;;;;;;;;5039931;28;20047;-65
2021/07/19 06:40:49;;;;;;;12.68;5.25;;;;;;;;;;5045962;28;20089;-65
2021/07/19 06:43:16;;;;;;;10.50;4.95;;;;;;;;;;5044082;28;20053;-65
2021/07/19 06:45:46;;;;;;;12.85;4.90;;;;;;;;;;5039765;28;20503;-65
2021/07/19 06:48:12;;;;;;;12.88;4.45;;;;;;;;;;5042203;28;20037;-65
2021/07/19 06:50:38;;;;;;;12.25;4.57;;;;;;;;;;5046205;28;20061;-65
2021/07/19 06:53:04;;;;;;;13.23;4.75;;;;;;;;;;5035471;28;20559;-65
2021/07/19 06:55:30;;;;;;;15.00;5.55;;;;;;;;;;5039938;28;20037;-65
2021/07/19 06:57:57;;;;;;;11.63;5.03;;;;;;;;;;5034613;28;20076;-65
2021/07/19 07:00:24;;;;;;;10.90;4.47;;;;;;;;;;5036053;28;20103;-65
2021/07/19 07:02:50;;;;;;;12.50;4.63;;;;;;;;;;5037418;28;20046;-65
2021/07/19 07:05:16;;;;;;;10.30;4.25;;;;;;;;;;5039143;28;20049;-65
2021/07/19 07:07:43;;;;;;;12.02;5.20;;;;;;;;;;5040832;28;20435;-65
2021/07/19 07:10:10;;;;;;;15.55;5.47;;;;;;;;;;5049133;28;20044;-65
2021/07/19 07:12:39;;;;;;;10.10;4.38;;;;;;;;;;5040629;28;20133;-65
2021/07/19 07:15:06;;;;;;;14.18;4.63;;;;;;;;;;5042751;28;20175;-65
2021/07/19 07:17:32;;;;;;;10.45;4.50;;;;;;;;;;5041315;28;20092;-65
2021/07/19 07:19:59;;;;;;;15.23;4.60;;;;;;;;;;5040424;28;20424;-65
2021/07/19 07:22:25;;;;;;;14.40;5.03;;;;;;;;;;5046299;28;20119;-65
2021/07/19 07:24:51;;;;;;;13.48;4.93;;;;;;;;;;5037476;28;20049;-65
2021/07/19 07:27:19;;;;;;;18.50;4.35;;;;;;;;;;5046917;28;20099;-65
2021/07/19 07:29:46;;;;;;;11.30;4.63;;;;;;;;;;5037058;28;20072;-65
2021/07/19 07:32:12;;;;;;;14.13;4.50;;;;;;;;;;5041660;28;20148;-65
2021/07/19 07:34:40;;;;;;;15.07;4.40;;;;;;;;;;5045161;28;20049;-65
2021/07/19 07:37:06;;;;;;;9.77;3.90;;;;;;;;;;5043460;28;20075;-65
2021/07/19 07:39:33;;;;;;;12.75;4.30;;;;;;;;;;5035318;28;20088;-65
2021/07/19 07:41:59;;;;;;;11.05;3.92;;;;;;;;;;5044278;28;20091;-65
2021/07/19 07:44:25;;;;;;;17.38;4.65;;;;;;;;;;5039904;28;20436;-65
2021/07/19 07:46:52;;;;;;;11.40;4.05;;;;;;;;;;5045698;28;20048;-65
2021/07/19 07:49:20;;;;;;;11.73;4.32;;;;;;;;;;5044126;28;20102;-65
2021/07/19 07:51:47;;;;;;;9.63;4.30;;;;;;;;;;5043323;28;20052;-65
2021/07/19 07:54:13;;;;;;;13.38;3.70;;;;;;;;;;5037563;28;20486;-65
2021/07/19 07:56:39;;;;;;;10.20;4.15;;;;;;;;;;5049731;28;20103;-65
2021/07/19 07:59:06;;;;;;;12.02;3.95;;;;;;;;;;5037774;28;20060;-65
2021/07/19 08:01:32;;;;;;;9.95;4.07;;;;;;;;;;5050104;28;20126;-65
2021/07/19 08:03:59;;;;;;;10.48;3.85;;;;;;;;;;5049736;28;20102;-65
2021/07/19 08:06:25;;;;;;;9.35;3.78;;;;;;;;;;5050422;28;20092;-65
2021/07/19 08:08:51;;;;;;;8.65;3.70;;;;;;;;;;5050102;28;20075;-65
2021/07/19 08:11:17;;;;;;;10.25;3.88;;;;;;;;;;5049633;28;20037;-65
2021/07/19 08:13:44;;;;;;;11.45;4.88;;;;;;;;;;5050130;28;20045;-65
2021/07/19 08:16:10;;;;;;;13.45;4.30;;;;;;;;;;5049934;28;20117;-65
2021/07/19 08:18:36;;;;;;;10.15;4.05;;;;;;;;;;5049608;28;20049;-65
2021/07/19 08:21:02;;;;;;;10.77;4.32;;;;;;;;;;5046655;28;20477;-65
2021/07/19 08:23:29;;;;;;;10.75;4.43;;;;;;;;;;5049524;28;20093;-66
2021/07/19 08:25:55;;;;;;;12.10;4.00;;;;;;;;;;5049193;28;20124;-65
2021/07/19 08:28:21;;;;;;;14.27;4.10;;;;;;;;;;5049812;28;20047;-65
2021/07/19 08:30:47;;;;;;;11.05;3.63;;;;;;;;;;5049933;28;20435;-65
2021/07/19 08:33:14;;;;;;;11.43;3.90;;;;;;;;;;5049544;28;20053;-65
2021/07/19 08:35:40;;;;;;;12.43;4.35;;;;;;;;;;5043350;28;20101;-65
2021/07/19 08:38:07;;;;;;;10.13;4.00;;;;;;;;;;5035162;28;20554;-65
2021/07/19 08:40:33;;;;;;;9.60;4.22;;;;;;;;;;5042586;28;20140;-65
2021/07/19 08:43:01;;;;;;;14.40;4.05;;;;;;;;;;5048921;28;20122;-66
2021/07/19 08:45:27;;;;;;;14.05;4.43;;;;;;;;;;5040395;28;20053;-65
2021/07/19 08:47:54;;;;;;;11.38;4.00;;;;;;;;;;5041326;28;20054;-65
2021/07/19 08:50:21;;;;;;;11.00;3.95;;;;;;;;;;5040428;28;20045;-65
2021/07/19 08:52:50;;;;;;;12.30;4.10;;;;;;;;;;5042744;28;20475;-65
2021/07/19 08:55:17;;;;;;;11.52;4.75;;;;;;;;;;5045550;28;20041;-66
2021/07/19 08:57:46;;;;;;;9.57;4.20;;;;;;;;;;5043323;28;20082;-65
2021/07/19 09:00:13;;;;;;;12.40;3.90;;;;;;;;;;5045193;28;20121;-65
2021/07/19 09:02:40;;;;;;;12.35;3.67;;;;;;;;;;5042031;28;20103;-65
2021/07/19 09:05:06;;;;;;;12.00;3.63;;;;;;;;;;5038483;28;20083;-66
2021/07/19 09:07:32;;;;;;;11.23;3.80;;;;;;;;;;5036052;28;20141;-66
2021/07/19 09:09:59;;;;;;;8.75;3.92;;;;;;;;;;5037566;28;20060;-65
2021/07/19 09:12:38;;;;;;;8.32;3.55;;;;;;;;;;5044113;28;20096;-65
2021/07/19 09:15:06;;;;;;;7.68;2.83;;;;;;;;;;5035918;28;20095;-65
2021/07/19 09:17:32;;;;;;;11.73;3.85;;;;;;;;;;5039825;28;20045;-66
2021/07/19 09:19:59;;;;;;;7.20;3.40;;;;;;;;;;5041008;28;20056;-66
2021/07/19 09:22:26;;;;;;;9.40;3.85;;;;;;;;;;5038079;28;20037;-66
2021/07/19 09:24:53;;;;;;;13.27;5.13;;;;;;;;;;5039387;28;20057;-66
2021/07/19 09:27:20;;;;;;;16.95;4.53;;;;;;;;;;5036454;28;20537;-66
2021/07/19 09:29:47;;;;;;;10.80;4.57;;;;;;;;;;5045473;28;20053;-66
2021/07/19 09:32:14;;;;;;;11.70;5.28;;;;;;;;;;5045872;28;20409;-66
2021/07/19 09:34:41;;;;;;;15.63;4.97;;;;;;;;;;5040080;28;20064;-66
2021/07/19 09:37:09;;;;;;;11.10;5.18;;;;;;;;;;5040192;28;20037;-66
2021/07/19 09:39:42;;;;;;;9.07;5.25;;;;;;;;;;5038235;28;20057;-66
2021/07/19 09:42:08;;;;;;;10.93;5.25;;;;;;;;;;5041877;28;20130;-66
2021/07/19 09:44:34;;;;;;;10.35;6.53;;;;;;;;;;5045446;28;20093;-66
2021/07/19 09:47:01;;;;;;;13.98;6.75;;;;;;;;;;5041497;28;20131;-66
2021/07/19 09:49:29;;;;;;;11.95;6.22;;;;;;;;;;5035592;28;20041;-66
2021/07/19 09:52:04;;;;;;;10.63;6.10;;;;;;;;;;5045410;28;20045;-66
2021/07/19 09:54:33;;;;;;;12.10;6.40;;;;;;;;;;5040504;28;20048;-66
2021/07/19 09:57:00;;;;;;;10.55;6.60;;;;;;;;;;5040505;28;20041;-66
2021/07/19 09:59:27;;;;;;;13.23;6.80;;;;;;;;;;5046169;28;20090;-66
2021/07/19 10:01:53;;;;;;;12.80;7.18;;;;;;;;;;5040693;28;20068;-66
2021/07/19 10:04:21;;;;;;;12.00;6.20;;;;;;;;;;5045020;28;20103;-66
2021/07/19 10:06:48;;;;;;;11.02;6.88;;;;;;;;;;5041554;28;20515;-66
2021/07/19 10:09:15;;;;;;;11.77;6.63;;;;;;;;;;5039295;28;20053;-66
2021/07/19 10:11:45;;;;;;;12.02;6.72;;;;;;;;;;5044870;28;20037;-66
2021/07/19 10:14:11;;;;;;;13.18;7.20;;;;;;;;;;5043355;28;20064;-66
2021/07/19 10:16:37;;;;;;;12.65;7.28;;;;;;;;;;5038544;28;20045;-65
2021/07/19 10:19:05;;;;;;;12.07;7.13;;;;;;;;;;5041573;28;20413;-81
2021/07/19 10:21:33;;;;;;;14.18;6.95;;;;;;;;;;5042624;28;20079;-66
2021/07/19 10:24:00;;;;;;;12.88;7.70;;;;;;;;;;5040421;28;20136;-66
2021/07/19 10:26:27;;;;;;;14.25;8.40;;;;;;;;;;5042973;28;20049;-65
2021/07/19 10:28:54;;;;;;;10.07;7.20;;;;;;;;;;5043188;28;20048;-65
2021/07/19 10:31:20;;;;;;;13.65;7.55;;;;;;;;;;5038660;28;20041;-65
2021/07/19 10:33:47;;;;;;;11.43;7.05;;;;;;;;;;5042980;28;20131;-66
2021/07/19 10:36:14;;;;;;;12.80;7.80;;;;;;;;;;5042782;28;20144;-66
2021/07/19 10:38:41;;;;;;;11.98;7.32;;;;;;;;;;5040858;28;20041;-65
2021/07/19 10:41:08;;;;;;;13.63;7.72;;;;;;;;;;5040696;28;20094;-65
2021/07/19 10:43:34;;;;;;;11.02;7.55;;;;;;;;;;5048281;28;20607;-65
2021/07/19 10:46:09;;;;;;;13.75;7.55;;;;;;;;;;5041848;28;20499;-65
2021/07/19 10:48:35;;;;;;;11.52;7.05;;;;;;;;;;5040922;28;20091;-66
2021/07/19 10:51:13;;;;;;;11.05;6.97;;;;;;;;;;5038148;28;20413;-65
2021/07/19 10:53:40;;;;;;;13.80;7.32;;;;;;;;;;5044346;28;20120;-65
2021/07/19 10:56:07;;;;;;;11.75;7.35;;;;;;;;;;5040376;28;20119;-65
2021/07/19 10:58:41;;;;;;;10.63;7.47;;;;;;;;;;5043748;28;20077;-66
2021/07/19 11:01:18;;;;;;;11.18;7.50;;;;;;;;;;5034995;28;20377;-65
2021/07/19 11:03:45;;;;;;;8.90;6.95;;;;;;;;;;5041555;28;20033;-65
2021/07/19 11:06:12;;;;;;;11.30;6.90;;;;;;;;;;5042891;28;20430;-65
2021/07/19 11:08:47;;;;;;;14.15;7.95;;;;;;;;;;5039884;28;20080;-65
2021/07/19 11:11:13;;;;;;;11.85;6.38;;;;;;;;;;5040283;28;20079;-66
2021/07/19 11:13:39;;;;;;;9.45;6.45;;;;;;;;;;5040757;28;20048;-66
2021/07/19 11:16:17;;;;;;;10.75;6.53;;;;;;;;;;5039126;28;20106;-66
2021/07/19 11:18:53;;;;;;;11.48;6.68;;;;;;;;;;5040491;28;20076;-65
2021/07/19 11:21:26;;;;;;;28.52;8.02;;;;;;;;;;5043709;28;20045;-65
2021/07/19 11:23:53;;;;;;;27.20;7.70;;;;;;;;;;5034094;28;20141;-65
2021/07/19 11:26:20;;;;;;;25.10;8.07;;;;;;;;;;5043952;28;20065;-65
2021/07/19 11:28:47;;;;;;;20.70;7.82;;;;;;;;;;5037923;28;20045;-65
2021/07/19 11:31:15;;;;;;;19.13;7.50;;;;;;;;;;5041198;28;20171;-65
2021/07/19 11:33:43;;;;;;;15.93;7.20;;;;;;;;;;5036699;28;20444;-67
2021/07/19 11:36:22;;;;;;;13.15;6.63;;;;;;;;;;5043637;28;20039;-65
2021/07/19 11:38:49;;;;;;;11.75;5.90;;;;;;;;;;5036043;28;20181;-66
2021/07/19 11:41:23;;;;;;;16.13;6.00;;;;;;;;;;5044478;28;20114;-65
2021/07/19 11:43:51;;;;;;;9.93;5.82;;;;;;;;;;5036811;28;20169;-66
2021/07/19 11:46:25;;;;;;;9.75;5.80;;;;;;;;;;5043508;28;20397;-65
2021/07/19 11:48:53;;;;;;;13.40;6.03;;;;;;;;;;5038315;28;20449;-65
2021/07/19 11:51:21;;;;;;;14.18;5.88;;;;;;;;;;5035499;28;20073;-66
2021/07/19 11:53:47;;;;;;;9.68;5.63;;;;;;;;;;5036358;28;20041;-65
2021/07/19 11:56:13;;;;;;;12.95;6.22;;;;;;;;;;5042114;28;20063;-65
2021/07/19 11:58:50;;;;;;;20.83;6.65;;;;;;;;;;5044099;28;20487;-66
2021/07/19 12:01:23;;;;;;;12.65;5.82;;;;;;;;;;5040436;28;20119;-65
2021/07/19 12:03:53;;;;;;;16.20;7.30;;;;;;;;;;5041343;28;20060;-65
2021/07/19 12:06:19;;;;;;;12.38;6.95;;;;;;;;;;5045656;28;20037;-65
2021/07/19 12:08:50;;;;;;;14.75;6.45;;;;;;;;;;5040545;28;20488;-65
2021/07/19 12:11:17;;;;;;;26.38;7.53;;;;;;;;;;5037671;28;20052;-65
2021/07/19 12:13:43;;;;;;;16.75;6.95;;;;;;;;;;5046718;28;20045;-65
2021/07/19 12:16:10;;;;;;;12.55;7.10;;;;;;;;;;5039579;28;20390;-65
2021/07/19 12:18:38;;;;;;;25.63;8.30;;;;;;;;;;5045039;28;20132;-66
2021/07/19 12:21:05;;;;;;;62.70;12.70;;;;;;;;;;5045507;28;20136;-65
2021/07/19 12:23:37;;;;;;;214.23;26.92;;;;;;;;;;5042917;28;20048;-66
2021/07/19 12:26:04;;;;;;;62.00;12.05;;;;;;;;;;5046244;28;20052;-65
2021/07/19 12:28:30;;;;;;;11.75;5.93;;;;;;;;;;5048683;28;20037;-66
2021/07/19 12:31:07;;;;;;;70.13;13.23;;;;;;;;;;5044727;28;20057;-66
2021/07/19 12:33:37;;;;;;;79.68;13.95;;;;;;;;;;5043712;28;20451;-66
2021/07/19 12:36:03;;;;;;;129.88;22.40;;;;;;;;;;5043707;28;20063;-66
2021/07/19 12:38:30;;;;;;;27.85;9.00;;;;;;;;;;5047959;28;20049;-65
2021/07/19 12:40:56;;;;;;;12.45;7.45;;;;;;;;;;5047189;28;20158;-66
2021/07/19 12:43:23;;;;;;;31.40;8.73;;;;;;;;;;5044664;28;20116;-66
2021/07/19 12:45:50;;;;;;;50.78;10.75;;;;;;;;;;5044545;28;20124;-66
2021/07/19 12:48:16;;;;;;;69.90;13.43;;;;;;;;;;5047052;28;20091;-66
2021/07/19 12:50:42;;;;;;;12.65;6.80;;;;;;;;;;5045603;28;20057;-65
2021/07/19 12:53:15;;;;;;;21.38;7.57;;;;;;;;;;5041817;28;20098;-65
2021/07/19 12:55:41;;;;;;;97.22;20.20;;;;;;;;;;5047136;28;20469;-66
2021/07/19 12:58:07;;;;;;;44.45;11.55;;;;;;;;;;5045170;28;20038;-66
2021/07/19 13:00:33;;;;;;;13.82;6.45;;;;;;;;;;5049994;28;20052;-65
2021/07/19 13:03:01;;;;;;;9.70;6.40;;;;;;;;;;5047281;28;20139;-66
2021/07/19 13:05:28;;;;;;;11.63;6.43;;;;;;;;;;5040315;28;20057;-66
2021/07/19 13:07:54;;;;;;;23.42;8.23;;;;;;;;;;5046062;28;20396;-66
2021/07/19 13:10:24;;;;;;;19.25;8.27;;;;;;;;;;5039622;28;20092;-66
2021/07/19 13:12:51;;;;;;;18.63;7.93;;;;;;;;;;5046400;28;20098;-66
2021/07/19 13:15:19;;;;;;;16.50;7.00;;;;;;;;;;5043598;28;20128;-66
2021/07/19 13:17:45;;;;;;;20.13;8.57;;;;;;;;;;5045475;28;20114;-66
2021/07/19 13:20:12;;;;;;;22.48;8.50;;;;;;;;;;5039349;28;20049;-66
2021/07/19 13:22:39;;;;;;;16.65;8.85;;;;;;;;;;5042394;28;20140;-66
2021/07/19 13:25:09;;;;;;;20.35;9.32;;;;;;;;;;5040007;28;20455;-66
2021/07/19 13:27:42;;;;;;;17.00;9.20;;;;;;;;;;5039784;28;20086;-66
2021/07/19 13:30:09;;;;;;;22.38;9.00;;;;;;;;;;5042266;28;20116;-66
2021/07/19 13:32:36;;;;;;;12.05;8.00;;;;;;;;;;5048144;28;20163;-66
2021/07/19 13:35:04;;;;;;;15.68;8.05;;;;;;;;;;5046484;28;20041;-66
2021/07/19 13:37:30;;;;;;;20.00;9.02;;;;;;;;;;5044899;28;20112;-66
2021/07/19 13:40:07;;;;;;;31.15;10.05;;;;;;;;;;5042135;28;20049;-66
2021/07/19 13:42:34;;;;;;;64.10;12.27;;;;;;;;;;5045132;28;20041;-66
2021/07/19 13:45:00;;;;;;;72.80;12.18;;;;;;;;;;5042487;28;20045;-66
2021/07/19 13:47:26;;;;;;;23.98;9.63;;;;;;;;;;5042727;28;20068;-66
2021/07/19 13:49:53;;;;;;;30.33;9.85;;;;;;;;;;5042947;28;20400;-66
2021/07/19 13:52:20;;;;;;;32.42;10.18;;;;;;;;;;5037829;28;20057;-66
2021/07/19 13:54:46;;;;;;;25.83;9.52;;;;;;;;;;5045714;28;20037;-66
2021/07/19 13:57:12;;;;;;;16.83;8.40;;;;;;;;;;5043491;28;20040;-66
2021/07/19 13:59:39;;;;;;;19.42;8.00;;;;;;;;;;5045853;28;20037;-66
2021/07/19 14:02:05;;;;;;;15.77;9.63;;;;;;;;;;5044726;28;20390;-66
2021/07/19 14:04:32;;;;;;;23.95;9.77;;;;;;;;;;5042061;28;20647;-66
2021/07/19 14:06:59;;;;;;;17.20;8.38;;;;;;;;;;5048031;28;20480;-66
2021/07/19 14:09:27;;;;;;;21.33;8.93;;;;;;;;;;5045163;28;20162;-66
2021/07/19 14:11:53;;;;;;;35.35;10.77;;;;;;;;;;5046412;28;20049;-66
2021/07/19 14:14:20;;;;;;;13.32;8.95;;;;;;;;;;5044427;28;20037;-66
2021/07/19 14:16:46;;;;;;;18.63;9.52;;;;;;;;;;5042256;28;20099;-66
2021/07/19 14:19:12;;;;;;;14.23;9.23;;;;;;;;;;5045756;28;20041;-66
2021/07/19 14:21:38;;;;;;;12.52;8.23;;;;;;;;;;5038014;28;20119;-66
2021/07/19 14:24:05;;;;;;;22.90;9.52;;;;;;;;;;5043011;28;20061;-66
2021/07/19 14:26:34;;;;;;;32.42;10.63;;;;;;;;;;5042358;28;20037;-66
2021/07/19 14:29:01;;;;;;;40.58;10.73;;;;;;;;;;5049385;28;20123;-66
2021/07/19 14:31:28;;;;;;;21.90;9.43;;;;;;;;;;5044485;28;20098;-66